Time;durP1;ratioP1;P1;durP2;ratioP2;P2;SDS_P1;SDS_P2;PMS_P1;PMS_P2;Temp;Humidity;BMP_temperature;BMP_pressure;BME280_temperature;BME280_humidity;BME280_pressure;Samples;Min_cycle;Max_cycle;Signal;HPM_P1;HPM_P2
2023/03/31 00:00:40;;;;;;;10.43;2.63;;;;;;;9.53;100.00;98170.34;4995073;28;20407;-75
2023/03/31 00:03:08;;;;;;;8.93;2.42;;;;;;;9.50;100.00;98151.06;4992497;28;20750;-75
2023/03/31 00:05:36;;;;;;;7.33;2.63;;;;;;;9.56;100.00;98142.09;5011204;28;20542;-74
2023/03/31 00:08:02;;;;;;;8.85;2.85;;;;;;;9.62;100.00;98160.19;4995626;28;20036;-74
2023/03/31 00:10:30;;;;;;;9.15;1.63;;;;;;;9.73;100.00;98162.19;4994735;28;20116;-74
2023/03/31 00:12:56;;;;;;;8.35;1.67;;;;;;;9.56;100.00;98139.41;5010381;28;20079;-74
2023/03/31 00:15:21;;;;;;;5.50;1.50;;;;;;;9.56;100.00;98139.41;5000000;28;20720;-74
2023/03/31 00:17:46;;;;;;;4.05;1.20;;;;;;;9.53;100.00;98148.75;4990828;28;20026;-74
2023/03/31 00:20:13;;;;;;;5.22;1.42;;;;;;;9.42;100.00;98134.03;5007924;28;20026;-75
2023/03/31 00:22:41;;;;;;;6.47;1.40;;;;;;;9.35;100.00;98127.88;5011298;28;20036;-74
2023/03/31 00:25:08;;;;;;;9.73;2.05;;;;;;;9.36;100.00;98143.00;4993691;28;20033;-74
2023/03/31 00:27:33;;;;;;;3.55;1.13;;;;;;;9.15;100.00;98118.97;5012305;28;20160;-74
2023/03/31 00:29:59;;;;;;;7.10;1.55;;;;;;;9.17;100.00;98127.69;4986263;28;20108;-75
2023/03/31 00:32:24;;;;;;;7.50;2.40;;;;;;;9.07;100.00;98105.72;4996216;28;20033;-76
2023/03/31 00:34:49;;;;;;;6.45;1.70;;;;;;;9.01;100.00;98115.44;5018487;28;20068;-76
2023/03/31 00:37:14;;;;;;;8.82;1.70;;;;;;;8.96;100.00;98113.41;5003318;28;20045;-75
2023/03/31 00:39:41;;;;;;;4.68;1.38;;;;;;;8.87;100.00;98093.06;5011933;28;20034;-74
2023/03/31 00:42:11;;;;;;;4.72;1.48;;;;;;;8.91;100.00;98107.00;5012442;28;20018;-75
2023/03/31 00:44:58;;;;;;;9.57;2.15;;;;;;;8.89;100.00;98096.41;5009099;28;20033;-74
2023/03/31 00:47:26;;;;;;;5.93;1.45;;;;;;;8.88;100.00;98100.16;4993565;28;20080;-74
2023/03/31 00:49:55;;;;;;;4.65;1.35;;;;;;;8.83;100.00;98110.72;4998038;28;20072;-75
2023/03/31 00:52:31;;;;;;;9.55;1.77;;;;;;;8.77;100.00;98074.63;4996389;28;20655;-74
2023/03/31 00:55:20;;;;;;;7.47;2.17;;;;;;;8.81;100.00;98077.75;5011344;28;20057;-74
2023/03/31 00:57:47;;;;;;;8.93;1.60;;;;;;;8.70;100.00;98064.91;4975396;28;20084;-75
2023/03/31 01:00:14;;;;;;;7.70;1.38;;;;;;;8.83;100.00;98075.66;5007989;28;20034;-74
2023/03/31 01:02:57;;;;;;;4.55;1.13;;;;;;;8.87;100.00;98065.28;4992200;28;20025;-75
2023/03/31 01:05:39;;;;;;;9.85;1.50;;;;;;;8.74;100.00;98053.47;4994108;28;20484;-75
2023/03/31 01:08:05;;;;;;;6.40;1.23;;;;;;;8.84;100.00;98061.13;5012467;28;20026;-74
2023/03/31 01:10:40;;;;;;;7.40;2.28;;;;;;;8.84;100.00;98065.69;5012024;28;20040;-76
2023/03/31 01:13:09;;;;;;;7.38;1.33;;;;;;;8.82;100.00;98063.19;4991834;28;20030;-75
2023/03/31 01:15:35;;;;;;;3.15;1.60;;;;;;;8.55;100.00;98020.09;4990129;28;20037;-75
2023/03/31 01:18:02;;;;;;;3.67;1.17;;;;;;;8.77;100.00;98060.31;4993448;28;20442;-75
2023/03/31 01:20:36;;;;;;;4.75;1.60;;;;;;;8.80;100.00;98053.66;5011204;28;20026;-75
2023/03/31 01:23:46;;;;;;;7.18;1.52;;;;;;;8.73;100.00;98042.91;4993473;28;20528;-75
2023/03/31 01:26:37;;;;;;;5.55;1.40;;;;;;;8.84;100.00;98049.50;5005730;28;20388;-74
2023/03/31 01:29:15;;;;;;;5.60;1.83;;;;;;;8.92;100.00;98038.50;5006110;28;20022;-76
2023/03/31 01:32:16;;;;;;;5.10;1.50;;;;;;;9.08;100.00;98037.19;4992355;28;20037;-76
2023/03/31 01:35:22;;;;;;;3.90;1.10;;;;;;;9.26;100.00;98040.03;5002497;28;20030;-78
2023/03/31 01:38:25;;;;;;;2.58;1.15;;;;;;;9.40;100.00;98028.13;4999039;28;20033;-76
2023/03/31 01:40:57;;;;;;;6.03;1.30;;;;;;;9.48;100.00;98010.03;5017516;28;20026;-77
2023/03/31 01:43:56;;;;;;;3.42;1.10;;;;;;;9.60;100.00;98005.63;4992534;28;20030;-75
2023/03/31 01:46:52;;;;;;;9.73;1.33;;;;;;;9.64;100.00;97994.16;5012938;28;20519;-75
2023/03/31 01:49:24;;;;;;;5.13;1.23;;;;;;;9.71;100.00;97993.28;4993645;28;20476;-75
2023/03/31 01:51:55;;;;;;;5.45;1.42;;;;;;;9.77;100.00;98004.06;5011320;28;20030;-75
2023/03/31 01:54:23;;;;;;;4.18;1.02;;;;;;;9.80;100.00;98000.94;5010419;28;20034;-76
2023/03/31 01:56:55;;;;;;;3.83;1.20;;;;;;;9.88;100.00;97986.31;5002963;28;20095;-75
2023/03/31 01:59:36;;;;;;;1.60;0.90;;;;;;;9.83;100.00;97994.25;4996665;28;20026;-75
2023/03/31 02:02:10;;;;;;;4.40;1.23;;;;;;;9.69;100.00;97984.56;4994876;28;20026;-75
2023/03/31 02:05:02;;;;;;;8.93;1.63;;;;;;;9.69;100.00;98004.31;4991346;28;20411;-75
2023/03/31 02:07:33;;;;;;;4.10;1.42;;;;;;;9.72;100.00;97998.50;4992456;28;20119;-75
2023/03/31 02:10:02;;;;;;;5.15;1.40;;;;;;;9.79;100.00;98006.53;4993258;28;20029;-75
2023/03/31 02:12:31;;;;;;;6.72;1.30;;;;;;;9.91;100.00;98003.97;4993610;28;20057;-75
2023/03/31 02:15:01;;;;;;;6.15;1.20;;;;;;;9.93;100.00;97988.34;4996014;28;20022;-76
2023/03/31 02:17:31;;;;;;;6.45;1.15;;;;;;;10.02;100.00;97987.03;4993035;28;20034;-75
2023/03/31 02:20:00;;;;;;;7.10;1.13;;;;;;;10.02;100.00;97982.47;4993291;28;20037;-75
2023/03/31 02:22:31;;;;;;;6.85;1.23;;;;;;;9.93;100.00;97967.59;4993423;28;20471;-75
2023/03/31 02:25:00;;;;;;;3.92;1.13;;;;;;;10.03;100.00;97965.22;5010594;28;20109;-75
2023/03/31 02:27:34;;;;;;;4.68;1.17;;;;;;;10.17;100.00;97954.28;5012096;28;20022;-75
2023/03/31 02:29:59;;;;;;;6.45;1.35;;;;;;;10.21;100.00;97958.19;5013554;28;20030;-75
2023/03/31 02:32:35;;;;;;;7.22;1.20;;;;;;;10.26;100.00;97969.16;4997152;28;20398;-75
2023/03/31 02:35:01;;;;;;;11.18;1.30;;;;;;;10.05;100.00;97938.78;4993140;28;20057;-75
2023/03/31 02:37:29;;;;;;;4.97;1.45;;;;;;;10.17;100.00;97962.41;5013543;28;20065;-75
2023/03/31 02:39:58;;;;;;;10.07;1.38;;;;;;;9.99;100.00;97939.66;4996970;28;20038;-76
2023/03/31 02:42:24;;;;;;;5.20;1.27;;;;;;;10.14;100.00;97947.44;4997229;28;20022;-75
2023/03/31 02:44:49;;;;;;;5.10;1.23;;;;;;;10.19;100.00;97928.69;5013083;28;20037;-75
2023/03/31 02:47:18;;;;;;;4.88;1.65;;;;;;;10.37;100.00;97935.19;5015912;28;20538;-75
2023/03/31 02:49:50;;;;;;;9.55;1.05;;;;;;;10.30;100.00;97909.06;4995917;28;20029;-76
2023/03/31 02:52:38;;;;;;;7.38;1.23;;;;;;;10.34;100.00;97919.44;4997372;28;20084;-79
2023/03/31 02:56:05;;;;;;;4.10;0.82;;;;;;;10.33;100.00;97932.13;5000028;28;20022;-80
2023/03/31 02:58:46;;;;;;;4.95;0.93;;;;;;;10.22;100.00;97911.22;4945084;29;20054;-81
2023/03/31 03:01:33;;;;;;;5.60;1.10;;;;;;;10.13;100.00;97910.66;4989836;28;20060;-83
2023/03/31 03:04:09;;;;;;;10.88;1.75;;;;;;;10.07;100.00;97887.22;4986537;28;20026;-83
2023/03/31 03:06:53;;;;;;;5.22;1.50;;;;;;;9.99;100.00;97869.41;4995795;28;20053;-78
2023/03/31 03:09:52;;;;;;;5.22;0.90;;;;;;;10.00;100.00;97859.44;4997957;28;20029;-82
2023/03/31 03:12:40;;;;;;;8.40;0.90;;;;;;;10.05;100.00;97848.78;5002617;28;20025;-83
2023/03/31 03:15:14;;;;;;;5.90;1.02;;;;;;;9.97;100.00;97824.75;4994692;28;20038;-79
2023/03/31 03:17:43;;;;;;;4.20;0.90;;;;;;;10.04;100.00;97829.03;4999511;28;20053;-79
2023/03/31 03:20:10;;;;;;;7.10;1.30;;;;;;;10.07;100.00;97812.38;5000674;28;20088;-80
2023/03/31 03:22:37;;;;;;;3.45;0.75;;;;;;;10.15;100.00;97811.25;4995653;28;20029;-79
2023/03/31 03:25:04;;;;;;;4.28;0.75;;;;;;;10.05;100.00;97779.34;5002518;28;20037;-83
2023/03/31 03:27:30;;;;;;;6.18;1.00;;;;;;;10.13;100.00;97780.91;4992012;28;20083;-85
2023/03/31 03:29:55;;;;;;;4.40;1.00;;;;;;;10.10;100.00;97776.78;4999494;28;20030;-83
2023/03/31 03:32:20;;;;;;;5.35;0.90;;;;;;;9.86;100.00;97734.47;5004435;28;20037;-81
2023/03/31 03:34:46;;;;;;;4.18;1.08;;;;;;;9.98;100.00;97750.72;5016157;28;20108;-81
2023/03/31 03:37:15;;;;;;;6.30;1.40;;;;;;;9.96;100.00;97753.69;4998809;28;20036;-86
2023/03/31 03:39:40;;;;;;;;;;;;;;;9.98;100.00;97764.25;5002024;28;20080;-83
2023/03/31 03:42:06;;;;;;;3.63;1.00;;;;;;;9.77;100.00;97730.38;5004544;28;19909;-79
2023/03/31 03:44:31;;;;;;;6.22;1.17;;;;;;;10.01;100.00;97753.84;5001361;28;20053;-81
2023/03/31 03:46:56;;;;;;;4.82;1.33;;;;;;;10.09;100.00;97756.22;5007416;28;20442;-75
2023/03/31 03:49:22;;;;;;;3.45;1.00;;;;;;;10.08;100.00;97742.94;5012610;28;20372;-76
2023/03/31 03:51:47;;;;;;;7.80;1.33;;;;;;;10.14;100.00;97736.63;5005403;28;20561;-85
2023/03/31 03:54:13;;;;;;;3.72;1.30;;;;;;;10.09;100.00;97709.47;4999961;28;20030;-84
2023/03/31 03:56:40;;;;;;;3.72;1.08;;;;;;;10.01;100.00;97698.97;4997911;28;20030;-87
2023/03/31 03:59:05;;;;;;;8.55;1.52;;;;;;;9.98;100.00;97673.22;4997919;28;20057;-78
2023/03/31 04:01:31;;;;;;;6.53;1.30;;;;;;;10.14;100.00;97682.59;4993862;28;20055;-81
2023/03/31 04:03:56;;;;;;;6.63;1.33;;;;;;;10.33;100.00;97694.22;5000492;28;20369;-84
2023/03/31 04:06:22;;;;;;;7.70;2.00;;;;;;;10.24;100.00;97673.91;4996879;28;20660;-81
2023/03/31 04:08:48;;;;;;;8.82;2.42;;;;;;;10.27;100.00;97682.44;5018863;28;20017;-85
2023/03/31 04:11:16;;;;;;;7.60;2.75;;;;;;;10.17;100.00;97667.78;4997842;28;20049;-84
2023/03/31 04:13:41;;;;;;;5.13;2.10;;;;;;;10.16;100.00;97669.63;5005999;28;20029;-85
2023/03/31 04:16:07;;;;;;;6.35;2.33;;;;;;;10.14;100.00;97665.50;4998002;28;20037;-85
2023/03/31 04:18:32;;;;;;;4.78;1.58;;;;;;;10.20;100.00;97657.34;5015477;28;20113;-85
2023/03/31 04:21:03;;;;;;;6.53;2.42;;;;;;;10.16;100.00;97664.25;5011010;28;20036;-80
2023/03/31 04:23:37;;;;;;;10.00;2.42;;;;;;;10.20;100.00;97680.84;4993503;28;20029;-74
2023/03/31 04:26:07;;;;;;;5.30;1.50;;;;;;;10.02;100.00;97657.38;4994583;28;20021;-74
2023/03/31 04:28:33;;;;;;;7.72;1.88;;;;;;;10.07;100.00;97688.06;5012027;28;20105;-74
2023/03/31 04:31:02;;;;;;;4.72;1.65;;;;;;;9.95;100.00;97662.84;5011246;28;20079;-73
2023/03/31 04:33:27;;;;;;;6.30;1.50;;;;;;;9.85;100.00;97636.38;4996375;28;20080;-74
2023/03/31 04:35:53;;;;;;;5.30;2.15;;;;;;;9.96;100.00;97647.47;4995337;28;20484;-73
2023/03/31 04:38:23;;;;;;;7.68;1.48;;;;;;;9.95;100.00;97653.94;4991862;28;20030;-74
2023/03/31 04:40:50;;;;;;;4.95;1.73;;;;;;;9.87;100.00;97638.84;5016360;28;20029;-74
2023/03/31 04:43:17;;;;;;;9.55;2.05;;;;;;;9.93;100.00;97647.91;4991302;28;20033;-76
2023/03/31 04:45:43;;;;;;;9.02;1.70;;;;;;;9.91;100.00;97645.47;4992603;28;20018;-73
2023/03/31 04:48:09;;;;;;;6.82;2.33;;;;;;;9.87;100.00;97645.06;5010821;28;20091;-76
2023/03/31 04:50:35;;;;;;;5.38;1.63;;;;;;;9.84;100.00;97652.81;5011042;28;20510;-77
2023/03/31 04:53:01;;;;;;;5.15;1.50;;;;;;;9.84;100.00;97640.13;4994310;28;20030;-76
2023/03/31 04:55:27;;;;;;;8.48;2.60;;;;;;;9.85;100.00;97631.00;5009987;28;20037;-81
2023/03/31 04:57:52;;;;;;;5.88;2.15;;;;;;;9.94;100.00;97628.78;5011809;28;20022;-81
2023/03/31 05:00:18;;;;;;;7.10;1.90;;;;;;;9.99;100.00;97620.00;4995204;28;20149;-77
2023/03/31 05:02:44;;;;;;;8.82;1.45;;;;;;;9.92;100.00;97592.25;4994125;28;20021;-77
2023/03/31 05:05:11;;;;;;;7.88;1.80;;;;;;;10.02;100.00;97603.34;4995866;28;20264;-80
2023/03/31 05:07:36;;;;;;;7.43;2.28;;;;;;;9.95;100.00;97599.88;4997801;28;20045;-71
2023/03/31 05:10:01;;;;;;;6.93;1.85;;;;;;;9.95;100.00;97622.31;4995262;28;20026;-77
2023/03/31 05:12:27;;;;;;;6.95;1.83;;;;;;;9.97;100.00;97628.31;5010116;28;20041;-75
2023/03/31 05:14:52;;;;;;;7.78;2.20;;;;;;;9.76;100.00;97626.94;5011934;28;20017;-76
2023/03/31 05:17:18;;;;;;;3.28;1.60;;;;;;;9.59;100.00;97610.53;4993194;28;20485;-75
2023/03/31 05:19:43;;;;;;;6.15;1.80;;;;;;;9.65;100.00;97633.09;5004156;28;20030;-74
2023/03/31 05:22:09;;;;;;;12.52;1.88;;;;;;;9.59;100.00;97623.22;4993432;28;20022;-79
2023/03/31 05:24:35;;;;;;;6.82;1.73;;;;;;;9.49;100.00;97623.75;4993740;28;20044;-77
2023/03/31 05:27:00;;;;;;;9.52;2.47;;;;;;;9.35;100.00;97631.16;5010849;28;20104;-77
2023/03/31 05:29:25;;;;;;;6.63;2.58;;;;;;;9.28;100.00;97651.19;4991494;28;20029;-78
2023/03/31 05:31:52;;;;;;;11.68;3.13;;;;;;;9.13;100.00;97667.72;4998083;28;20029;-73
2023/03/31 05:34:18;;;;;;;9.82;3.47;;;;;;;8.95;100.00;97680.09;5007562;28;20025;-73
2023/03/31 05:36:43;;;;;;;5.47;2.45;;;;;;;8.74;100.00;97685.88;5016449;28;20100;-74
2023/03/31 05:39:09;;;;;;;7.68;2.35;;;;;;;8.42;100.00;97669.72;5011041;28;20554;-73
2023/03/31 05:41:34;;;;;;;10.52;2.80;;;;;;;8.43;100.00;97706.41;5009476;28;20480;-73
2023/03/31 05:44:00;;;;;;;12.07;2.95;;;;;;;8.38;100.00;97700.81;5008272;28;20026;-78
2023/03/31 05:46:26;;;;;;;10.50;3.50;;;;;;;8.19;100.00;97675.63;4996829;28;20403;-79
2023/03/31 05:48:52;;;;;;;12.43;3.33;;;;;;;8.27;100.00;97683.44;4996799;28;20033;-83
2023/03/31 05:51:17;;;;;;;11.52;3.28;;;;;;;8.35;100.00;97695.84;4995047;28;20037;-75
2023/03/31 05:53:43;;;;;;;12.35;3.50;;;;;;;8.43;100.00;97706.41;5015021;28;20430;-81
2023/03/31 05:56:08;;;;;;;9.82;4.05;;;;;;;8.44;100.00;97691.06;4995674;28;20038;-78
2023/03/31 05:58:35;;;;;;;15.27;3.47;;;;;;;8.49;100.00;97696.66;4996508;28;20028;-78
2023/03/31 06:01:08;;;;;;;10.98;2.90;;;;;;;8.53;100.00;97679.81;5008544;28;20021;-79
2023/03/31 06:03:40;;;;;;;7.43;3.35;;;;;;;8.52;100.00;97671.94;5004797;28;20060;-82
2023/03/31 06:06:07;;;;;;;14.93;4.15;;;;;;;8.50;100.00;97669.47;4993666;28;20037;-78
2023/03/31 06:08:34;;;;;;;13.98;4.00;;;;;;;8.40;100.00;97652.13;5022311;28;20033;-85
2023/03/31 06:10:59;;;;;;;13.07;4.68;;;;;;;8.36;100.00;97640.94;5014628;28;20032;-83
2023/03/31 06:13:25;;;;;;;10.15;3.00;;;;;;;8.21;100.00;97614.28;5013373;28;20026;-87
2023/03/31 06:15:56;;;;;;;17.92;4.03;;;;;;;8.49;100.00;97659.72;5010736;28;20048;-83
2023/03/31 06:18:22;;;;;;;14.32;4.63;;;;;;;8.48;100.00;97646.47;5010664;28;20022;-80
2023/03/31 06:20:48;;;;;;;9.45;3.92;;;;;;;8.43;100.00;97632.81;5018114;28;20025;-78
2023/03/31 06:23:15;;;;;;;10.82;3.53;;;;;;;8.41;100.00;97621.41;5008111;28;20053;-82
2023/03/31 06:25:40;;;;;;;16.85;4.55;;;;;;;8.33;100.00;97607.16;5006140;28;20061;-82
2023/03/31 06:28:06;;;;;;;11.55;4.18;;;;;;;8.22;100.00;97583.59;5015434;28;20061;-81
2023/03/31 06:30:32;;;;;;;9.70;3.63;;;;;;;8.47;100.00;97613.28;4998292;28;20029;-80
2023/03/31 06:32:58;;;;;;;8.70;4.03;;;;;;;8.22;100.00;97555.81;5002691;28;20025;-77
2023/03/31 06:35:23;;;;;;;11.73;4.72;;;;;;;8.51;100.00;97603.75;5000748;28;20018;-78
2023/03/31 06:37:48;;;;;;;11.60;4.10;;;;;;;8.43;100.00;97585.13;4997519;28;20022;-75
2023/03/31 06:40:14;;;;;;;9.43;4.82;;;;;;;8.42;100.00;97596.94;5015980;28;20049;-75
2023/03/31 06:42:43;;;;;;;14.85;4.90;;;;;;;8.55;100.00;97625.69;4999763;28;21414;-82
2023/03/31 06:45:09;;;;;;;20.67;5.15;;;;;;;8.49;100.00;97613.91;5004420;28;20045;-80
2023/03/31 06:47:36;;;;;;;15.05;4.50;;;;;;;8.48;100.00;97620.31;5011936;28;20040;-84
2023/03/31 06:50:02;;;;;;;14.82;4.57;;;;;;;8.43;100.00;97620.16;5019471;28;20103;-84
2023/03/31 06:52:27;;;;;;;13.50;4.53;;;;;;;8.31;100.00;97614.63;5006274;28;20113;-82
2023/03/31 06:54:52;;;;;;;19.13;4.63;;;;;;;8.43;100.00;97624.72;5003893;28;20022;-81
2023/03/31 06:57:18;;;;;;;10.13;4.80;;;;;;;8.51;100.00;97627.16;5016859;28;20116;-81
2023/03/31 06:59:43;;;;;;;8.88;4.70;;;;;;;8.56;100.00;97648.88;4997786;28;20396;-76
2023/03/31 07:02:09;;;;;;;10.85;4.68;;;;;;;8.59;100.00;97653.84;5016920;28;20634;-78
2023/03/31 07:04:35;;;;;;;15.38;4.72;;;;;;;8.51;100.00;97640.63;5015382;28;20034;-81
2023/03/31 07:07:00;;;;;;;16.80;5.32;;;;;;;8.48;100.00;97649.97;4995729;28;20032;-76
2023/03/31 07:09:27;;;;;;;12.52;5.15;;;;;;;8.60;100.00;97673.56;5015062;28;20037;-79
2023/03/31 07:11:52;;;;;;;14.98;5.30;;;;;;;8.45;100.00;97673.84;5017556;28;20034;-77
2023/03/31 07:14:17;;;;;;;18.10;6.35;;;;;;;8.25;100.00;97647.00;5015820;28;20034;-79
2023/03/31 07:16:43;;;;;;;26.42;6.13;;;;;;;8.47;100.00;97683.38;5003422;28;20090;-77
2023/03/31 07:19:09;;;;;;;16.70;5.75;;;;;;;8.52;100.00;97686.25;5004033;28;20049;-81
2023/03/31 07:21:36;;;;;;;14.02;6.10;;;;;;;8.51;100.00;97668.44;4999066;28;20045;-79
2023/03/31 07:24:01;;;;;;;17.30;7.20;;;;;;;8.49;100.00;97580.75;4998394;28;20416;-84
2023/03/31 07:26:27;;;;;;;23.25;6.28;;;;;;;8.49;100.00;97569.97;4995561;28;20178;-79
2023/03/31 07:28:55;;;;;;;14.20;5.85;;;;;;;8.55;100.00;97552.88;5000454;28;20044;-78
2023/03/31 07:31:22;;;;;;;18.17;5.13;;;;;;;8.70;100.00;97520.19;5016013;28;20045;-82
2023/03/31 07:33:47;;;;;;;13.82;4.97;;;;;;;8.61;100.00;97525.03;4996926;28;20502;-77
2023/03/31 07:36:12;;;;;;;18.75;5.32;;;;;;;8.79;100.00;97545.81;5013604;28;20022;-80
2023/03/31 07:38:40;;;;;;;16.83;5.63;;;;;;;8.77;100.00;97556.81;5000581;28;20149;-80
2023/03/31 07:41:08;;;;;;;15.70;5.18;;;;;;;8.96;100.00;97590.06;5004660;28;20022;-80
2023/03/31 07:43:34;;;;;;;13.68;5.38;;;;;;;9.14;100.00;97569.50;5001307;28;21753;-83
2023/03/31 07:45:59;;;;;;;14.18;5.18;;;;;;;9.18;100.00;97570.72;5011866;28;20030;-83
2023/03/31 07:48:27;;;;;;;13.57;4.90;;;;;;;9.35;100.00;97561.00;5003356;28;20034;-81
2023/03/31 07:50:53;;;;;;;8.55;4.93;;;;;;;9.50;100.00;97568.69;4999630;28;20041;-79
2023/03/31 07:53:18;;;;;;;13.85;4.90;;;;;;;9.63;100.00;97559.59;5000513;28;20033;-80
2023/03/31 07:55:44;;;;;;;10.43;4.32;;;;;;;10.56;100.00;97563.66;5001544;28;20020;-79
2023/03/31 07:58:10;;;;;;;12.32;4.18;;;;;;;11.53;100.00;97511.63;5017096;28;20116;-84
2023/03/31 08:00:36;;;;;;;7.95;3.05;;;;;;;11.16;100.00;97520.09;5008592;28;20112;-82
2023/03/31 08:03:01;;;;;;;7.13;3.20;;;;;;;10.57;100.00;97521.19;5000523;28;20056;-84
2023/03/31 08:05:27;;;;;;;6.85;3.40;;;;;;;10.18;100.00;97462.13;5001370;28;20026;-85
2023/03/31 08:07:52;;;;;;;12.07;3.03;;;;;;;10.70;100.00;97515.56;5018073;28;20098;-86
2023/03/31 08:10:21;;;;;;;8.20;2.85;;;;;;;11.79;100.00;97512.94;5000083;28;20061;-79
2023/03/31 08:12:46;;;;;;;7.32;2.70;;;;;;;11.97;100.00;97484.00;4998448;28;20383;-77
2023/03/31 08:15:12;;;;;;;6.93;3.10;;;;;;;12.04;100.00;97480.06;5015792;28;20029;-78
2023/03/31 08:17:39;;;;;;;5.03;1.92;;;;;;;16.08;100.00;97472.03;5007056;28;21736;-78
2023/03/31 08:20:09;;;;;;;4.30;2.25;;;;;;;18.28;100.00;97462.31;5014127;28;20118;-73
2023/03/31 08:22:35;;;;;;;4.32;2.40;;;;;;;20.54;100.00;97453.81;4998258;28;20153;-79
2023/03/31 08:25:01;;;;;;;3.90;2.00;;;;;;;23.37;100.00;97454.56;5242572;23;20050;-63
2023/03/31 08:27:27;;;;;;;2.22;1.00;;;;;;;23.66;75.94;97462.28;5010839;28;20035;-63
2023/03/31 08:29:52;;;;;;;2.72;0.93;;;;;;;22.88;71.51;97456.47;4992936;28;20088;-63
2023/03/31 08:32:21;;;;;;;4.63;1.38;;;;;;;23.27;64.24;97455.69;4990875;28;20040;-63
2023/03/31 08:34:46;;;;;;;1.67;0.93;;;;;;;20.30;85.01;97464.06;4983737;28;20030;-63
2023/03/31 08:37:12;;;;;;;5.10;0.85;;;;;;;18.22;100.00;97460.72;4968071;28;20034;-63
2023/03/31 08:39:37;;;;;;;3.05;0.98;;;;;;;17.47;100.00;97457.03;4989532;28;20037;-63
2023/03/31 08:42:14;;;;;;;2.22;0.63;;;;;;;16.06;100.00;97459.75;4988823;28;20027;-63
2023/03/31 08:44:45;;;;;;;4.93;1.02;;;;;;;15.61;100.00;97448.47;4988253;28;20034;-63
2023/03/31 08:47:19;;;;;;;3.55;0.75;;;;;;;14.85;100.00;97446.28;4964383;28;20030;-64
2023/03/31 08:49:55;;;;;;;2.75;0.80;;;;;;;14.84;100.00;97447.38;4970443;28;20026;-55
2023/03/31 08:52:26;;;;;;;7.25;0.90;;;;;;;14.86;100.00;97442.50;4997640;28;20022;-54
2023/03/31 08:54:57;;;;;;;4.32;1.10;;;;;;;16.93;100.00;97425.03;4970934;28;20034;-54
2023/03/31 08:58:00;;;;;;;3.90;0.60;;;;;;;22.28;84.55;97425.44;4991391;28;20026;-55
2023/03/31 09:00:34;;;;;;;2.85;0.63;;;;;;;24.54;62.88;97416.19;4981997;28;20130;-55
2023/03/31 09:03:15;;;;;;;4.60;0.93;;;;;;;23.02;61.89;97415.00;4969740;28;20041;-55
2023/03/31 09:05:54;;;;;;;4.18;0.90;;;;;;;22.31;64.81;97416.53;4970607;28;20034;-54
2023/03/31 09:08:40;;;;;;;1.83;0.60;;;;;;;23.04;64.21;97410.81;4991448;28;20148;-54
2023/03/31 09:11:10;;;;;;;3.53;0.75;;;;;;;22.85;63.42;97402.75;4970346;28;20185;-55
2023/03/31 09:13:58;;;;;;;2.55;0.82;;;;;;;19.89;78.24;97409.78;4976607;28;20033;-55
2023/03/31 09:16:32;;;;;;;3.00;1.13;;;;;;;17.09;100.00;97420.34;4985469;28;20026;-55
2023/03/31 09:19:01;;;;;;;1.70;0.88;;;;;;;16.58;100.00;97409.50;4977418;28;20061;-54
2023/03/31 09:21:32;;;;;;;2.35;0.73;;;;;;;18.76;100.00;97404.94;4976256;28;20030;-57
2023/03/31 09:24:12;;;;;;;3.60;0.80;;;;;;;19.43;100.00;97403.00;4969337;28;20019;-58
2023/03/31 09:26:46;;;;;;;2.22;0.98;;;;;;;22.57;70.58;97391.09;4972684;28;20073;-57
2023/03/31 09:29:19;;;;;;;4.07;0.73;;;;;;;22.07;66.89;97391.22;4973253;28;20470;-58
2023/03/31 09:31:46;;;;;;;3.03;0.68;;;;;;;22.34;68.36;97392.25;4973400;28;20389;-58
2023/03/31 09:34:15;;;;;;;3.70;0.73;;;;;;;19.72;69.84;97363.66;4966636;28;20026;-58
2023/03/31 09:36:40;;;;;;;;;;;;;;;19.27;77.45;97368.66;4979114;28;20040;-58
2023/03/31 09:39:13;;;;;;;2.55;0.75;;;;;;;20.50;64.78;97380.47;4974060;28;20008;-57
2023/03/31 09:41:43;;;;;;;4.50;0.90;;;;;;;20.22;67.94;97391.38;4969143;28;20053;-57
2023/03/31 09:44:23;;;;;;;2.35;0.95;;;;;;;18.96;74.77;97390.16;4970434;28;20022;-57
2023/03/31 09:46:50;;;;;;;2.95;0.50;;;;;;;18.72;75.84;97381.94;4987685;28;20447;-58
2023/03/31 09:49:23;;;;;;;3.90;0.68;;;;;;;21.58;64.53;97382.72;4968948;28;21330;-58
2023/03/31 09:52:00;;;;;;;4.05;0.80;;;;;;;22.78;53.36;97374.00;4986959;28;20123;-58
2023/03/31 09:54:42;;;;;;;5.38;1.08;;;;;;;22.43;51.76;97377.41;4991380;28;20462;-58
2023/03/31 09:57:26;;;;;;;4.97;0.98;;;;;;;22.23;48.72;97366.91;4978571;28;20058;-58
2023/03/31 09:59:52;;;;;;;4.97;0.90;;;;;;;21.42;50.27;97370.44;4989367;28;20092;-58
2023/03/31 10:02:33;;;;;;;7.63;1.10;;;;;;;20.71;51.85;97365.25;4971077;28;20455;-58
2023/03/31 10:04:58;;;;;;;6.18;1.33;;;;;;;20.04;54.14;97365.63;4974829;28;20026;-58
2023/03/31 10:07:25;;;;;;;4.15;0.98;;;;;;;19.32;56.63;97373.28;4979316;28;20030;-57
2023/03/31 10:09:53;;;;;;;6.82;1.13;;;;;;;18.09;59.32;97388.28;4973674;28;20037;-57
2023/03/31 10:12:24;;;;;;;3.67;1.13;;;;;;;17.51;62.04;97386.22;4974649;28;20176;-58
2023/03/31 10:14:52;;;;;;;5.78;1.02;;;;;;;17.95;61.41;97385.41;4983317;28;20064;-58
2023/03/31 10:17:22;;;;;;;6.60;1.10;;;;;;;19.48;58.52;97375.50;4962833;28;20041;-58
2023/03/31 10:19:57;;;;;;;4.95;0.70;;;;;;;18.25;58.01;97367.88;4988169;28;20030;-57
2023/03/31 10:22:29;;;;;;;3.58;0.80;;;;;;;16.10;73.18;97396.22;4983655;28;20496;-57
2023/03/31 10:25:09;;;;;;;8.63;1.10;;;;;;;13.60;100.00;97425.75;4974408;28;20039;-56
2023/03/31 10:27:39;;;;;;;7.18;0.90;;;;;;;12.67;100.00;97422.97;4972575;28;20031;-56
2023/03/31 10:30:09;;;;;;;4.20;0.90;;;;;;;12.85;100.00;97430.00;4975423;28;20061;-55
2023/03/31 10:32:41;;;;;;;6.90;1.00;;;;;;;13.32;100.00;97414.03;4973925;28;20018;-55
2023/03/31 10:35:34;;;;;;;6.60;0.55;;;;;;;13.18;100.00;97377.47;4977355;28;20022;-55
2023/03/31 10:38:11;;;;;;;4.05;0.98;;;;;;;13.41;100.00;97391.84;4971770;28;20042;-55
2023/03/31 10:40:39;;;;;;;7.03;0.85;;;;;;;13.61;100.00;97383.88;4986634;28;20434;-55
2023/03/31 10:43:17;;;;;;;5.35;0.90;;;;;;;13.42;100.00;97379.91;4972268;28;20027;-55
2023/03/31 10:45:48;;;;;;;4.03;0.73;;;;;;;13.60;100.00;97376.81;4978328;28;20031;-55
2023/03/31 10:48:30;;;;;;;2.65;0.57;;;;;;;13.78;100.00;97373.72;4993615;28;20034;-55
2023/03/31 10:51:15;;;;;;;7.47;0.95;;;;;;;15.37;100.00;97330.16;4987176;28;20026;-54
2023/03/31 10:53:43;;;;;;;4.47;0.98;;;;;;;18.07;92.41;97322.06;4989013;28;20065;-54
2023/03/31 10:56:36;;;;;;;2.83;0.70;;;;;;;18.32;74.94;97327.28;4978312;28;20030;-54
2023/03/31 10:59:52;;;;;;;3.08;0.65;;;;;;;19.01;76.63;97336.09;4980204;28;20030;-54
2023/03/31 11:02:41;;;;;;;2.65;0.90;;;;;;;22.02;61.45;97326.06;4952661;28;20060;-55
2023/03/31 11:05:21;;;;;;;3.20;0.63;;;;;;;22.49;58.57;97329.28;4992723;28;20117;-55
2023/03/31 11:07:53;;;;;;;3.10;0.75;;;;;;;21.68;55.88;97307.38;4990857;28;20125;-58
2023/03/31 11:10:54;;;;;;;3.75;0.80;;;;;;;20.20;63.10;97316.75;4995847;28;20089;-55
2023/03/31 11:13:22;;;;;;;3.90;0.80;;;;;;;18.84;66.64;97313.88;4966698;28;20445;-54
2023/03/31 11:15:58;;;;;;;3.50;0.57;;;;;;;18.40;68.52;97306.69;4971782;28;20394;-55
2023/03/31 11:18:49;;;;;;;3.15;0.68;;;;;;;18.53;70.16;97310.66;4990623;28;20470;-55
2023/03/31 11:21:35;;;;;;;3.40;0.68;;;;;;;18.95;72.50;97309.88;4987116;28;20030;-55
2023/03/31 11:24:09;;;;;;;3.22;0.68;;;;;;;18.23;78.81;97320.00;4983432;28;20034;-55
2023/03/31 11:27:00;;;;;;;4.22;0.90;;;;;;;15.27;100.00;97344.56;4989315;28;20037;-54
2023/03/31 11:29:31;;;;;;;5.60;0.68;;;;;;;13.05;100.00;97375.97;4991072;28;20036;-55
2023/03/31 11:32:26;;;;;;;2.60;0.63;;;;;;;11.22;100.00;97414.63;4991594;28;20026;-55
2023/03/31 11:35:13;;;;;;;1.30;0.30;;;;;;;10.24;100.00;97428.78;4965853;28;20046;-54
2023/03/31 11:38:04;;;;;;;3.13;0.10;;;;;;;9.81;100.00;97446.09;4982621;28;20048;-54
2023/03/31 11:40:55;;;;;;;4.82;0.13;;;;;;;9.51;100.00;97450.72;4979502;28;20106;-54
2023/03/31 11:43:33;;;;;;;2.10;0.15;;;;;;;9.30;100.00;97425.91;4987734;28;20031;-54
2023/03/31 11:46:35;;;;;;;1.65;0.20;;;;;;;9.39;100.00;97426.38;4983172;28;20030;-63
2023/03/31 11:49:05;;;;;;;0.30;0.08;;;;;;;9.68;100.00;97413.09;4984430;28;20032;-63